Time;durP1;ratioP1;P1;durP2;ratioP2;P2;SDS_P1;SDS_P2;PMS_P1;PMS_P2;Temp;Humidity;BMP_temperature;BMP_pressure;BME280_temperature;BME280_humidity;BME280_pressure;Samples;Min_cycle;Max_cycle;Signal;HPM_P1;HPM_P2
2021/06/30 00:00:48;;;;;;;3.07;1.70;;;;;;;;;;5094442;28;20220;-82
2021/06/30 00:03:15;;;;;;;2.40;1.87;;;;;;;;;;5092410;28;20232;-83
2021/06/30 00:05:42;;;;;;;2.43;1.90;;;;;;;;;;5092745;28;20241;-83
2021/06/30 00:08:08;;;;;;;9.20;2.07;;;;;;;;;;5094277;28;20206;-82
2021/06/30 00:10:35;;;;;;;5.23;2.10;;;;;;;;;;5092516;28;20202;-81
2021/06/30 00:13:03;;;;;;;2.77;1.47;;;;;;;;;;5093810;28;20178;-82
2021/06/30 00:15:31;;;;;;;3.43;1.60;;;;;;;;;;5092415;28;20223;-82
2021/06/30 00:17:58;;;;;;;3.73;1.40;;;;;;;;;;5093949;28;20205;-81
2021/06/30 00:20:25;;;;;;;1.87;1.60;;;;;;;;;;5093998;28;20206;-82
2021/06/30 00:22:51;;;;;;;2.80;1.50;;;;;;;;;;5094008;28;20174;-82
2021/06/30 00:25:20;;;;;;;1.93;1.60;;;;;;;;;;5092622;28;20237;-82
2021/06/30 00:27:47;;;;;;;1.93;1.67;;;;;;;;;;5092322;28;20225;-81
2021/06/30 00:30:16;;;;;;;2.03;1.43;;;;;;;;;;5093921;28;20221;-82
2021/06/30 00:32:43;;;;;;;5.17;2.00;;;;;;;;;;5093430;28;20217;-82
2021/06/30 00:35:10;;;;;;;8.10;2.80;;;;;;;;;;5092207;28;20235;-82
2021/06/30 00:37:37;;;;;;;10.23;3.20;;;;;;;;;;5091995;28;20217;-82
2021/06/30 00:40:04;;;;;;;3.60;1.90;;;;;;;;;;5093876;28;20171;-82
2021/06/30 00:42:31;;;;;;;2.00;1.90;;;;;;;;;;5093678;28;20210;-82
2021/06/30 00:44:58;;;;;;;2.43;1.90;;;;;;;;;;5092356;28;20239;-81
2021/06/30 00:47:26;;;;;;;1.90;1.70;;;;;;;;;;5093433;28;20243;-82
2021/06/30 00:49:52;;;;;;;1.80;1.70;;;;;;;;;;5092203;28;20217;-81
2021/06/30 00:52:19;;;;;;;3.77;1.73;;;;;;;;;;5092196;28;20243;-82
2021/06/30 00:54:46;;;;;;;2.30;2.10;;;;;;;;;;5093774;28;20664;-82
2021/06/30 00:57:14;;;;;;;4.93;2.03;;;;;;;;;;5092111;28;20214;-82
2021/06/30 00:59:41;;;;;;;2.63;1.87;;;;;;;;;;5093744;28;20185;-81
2021/06/30 01:02:07;;;;;;;8.57;2.00;;;;;;;;;;5093133;28;20295;-82
2021/06/30 01:04:35;;;;;;;3.43;1.80;;;;;;;;;;5092067;28;20192;-81
2021/06/30 01:07:02;;;;;;;3.90;2.13;;;;;;;;;;5091615;28;20214;-81
2021/06/30 01:09:29;;;;;;;2.03;1.87;;;;;;;;;;5093213;28;20244;-82
2021/06/30 01:11:57;;;;;;;5.03;1.90;;;;;;;;;;5091970;28;20202;-82
2021/06/30 01:14:24;;;;;;;5.83;2.00;;;;;;;;;;5091720;28;20197;-82
2021/06/30 01:16:51;;;;;;;4.30;2.23;;;;;;;;;;5093341;28;20216;-82
2021/06/30 01:19:19;;;;;;;4.77;2.00;;;;;;;;;;5093248;28;20201;-82
2021/06/30 01:21:47;;;;;;;7.33;2.30;;;;;;;;;;5093480;28;20185;-82
2021/06/30 01:24:15;;;;;;;2.87;1.97;;;;;;;;;;5094675;28;20205;-82
2021/06/30 01:26:42;;;;;;;5.27;1.87;;;;;;;;;;5095105;28;20260;-81
2021/06/30 01:29:08;;;;;;;4.33;1.93;;;;;;;;;;5097209;28;20210;-81
2021/06/30 01:31:35;;;;;;;3.70;2.23;;;;;;;;;;5097298;28;20241;-82
2021/06/30 01:34:02;;;;;;;6.00;1.97;;;;;;;;;;5095800;28;20197;-82
2021/06/30 01:36:28;;;;;;;1.90;1.80;;;;;;;;;;5095823;28;20194;-81
2021/06/30 01:38:55;;;;;;;2.00;1.87;;;;;;;;;;5096009;28;20562;-81
2021/06/30 01:41:23;;;;;;;3.47;2.07;;;;;;;;;;5095436;28;20198;-82
2021/06/30 01:43:50;;;;;;;4.30;1.90;;;;;;;;;;5096888;28;20230;-82
2021/06/30 01:46:17;;;;;;;4.20;1.80;;;;;;;;;;5096965;28;20638;-81
2021/06/30 01:48:46;;;;;;;2.93;1.83;;;;;;;;;;5095273;28;20718;-81
2021/06/30 01:51:12;;;;;;;1.97;1.87;;;;;;;;;;5097058;28;20213;-82
2021/06/30 01:53:39;;;;;;;6.73;2.17;;;;;;;;;;5095075;28;20206;-82
2021/06/30 01:56:06;;;;;;;2.73;1.97;;;;;;;;;;5095540;28;20186;-81
2021/06/30 01:58:34;;;;;;;3.03;1.87;;;;;;;;;;5096553;28;20983;-82
2021/06/30 02:01:00;;;;;;;1.60;1.60;;;;;;;;;;5095065;28;20338;-81
2021/06/30 02:03:27;;;;;;;2.00;1.80;;;;;;;;;;5094889;28;20275;-83
2021/06/30 02:05:54;;;;;;;2.63;1.70;;;;;;;;;;5095266;28;20237;-82
2021/06/30 02:08:21;;;;;;;3.13;1.70;;;;;;;;;;5095432;28;20669;-82
2021/06/30 02:10:48;;;;;;;1.50;1.47;;;;;;;;;;5095368;28;20649;-82
2021/06/30 02:13:14;;;;;;;2.90;1.77;;;;;;;;;;5094993;28;20685;-82
2021/06/30 02:15:42;;;;;;;3.33;1.90;;;;;;;;;;5095156;28;20650;-81
2021/06/30 02:18:10;;;;;;;2.10;1.87;;;;;;;;;;5095164;28;20706;-82
2021/06/30 02:20:37;;;;;;;3.90;1.80;;;;;;;;;;5095165;28;20205;-83
2021/06/30 02:23:03;;;;;;;2.50;1.60;;;;;;;;;;5096191;28;21105;-83
2021/06/30 02:25:31;;;;;;;2.67;1.77;;;;;;;;;;5096210;28;20213;-83
2021/06/30 02:27:58;;;;;;;5.60;1.80;;;;;;;;;;5094693;28;20720;-83
2021/06/30 02:30:26;;;;;;;6.90;1.80;;;;;;;;;;5094844;28;20205;-82
2021/06/30 02:32:56;;;;;;;3.40;1.70;;;;;;;;;;5094841;28;20559;-81
2021/06/30 02:35:23;;;;;;;2.50;1.70;;;;;;;;;;5093925;28;20201;-81
2021/06/30 02:37:50;;;;;;;3.03;1.83;;;;;;;;;;5094363;28;20223;-84
2021/06/30 02:40:18;;;;;;;3.23;1.67;;;;;;;;;;5095877;28;20206;-83
2021/06/30 02:42:44;;;;;;;4.73;1.73;;;;;;;;;;5095680;28;20665;-84
2021/06/30 02:45:13;;;;;;;1.63;1.50;;;;;;;;;;5095797;28;20174;-83
2021/06/30 02:47:40;;;;;;;3.23;1.70;;;;;;;;;;5094537;28;20243;-83
2021/06/30 02:50:09;;;;;;;3.40;1.83;;;;;;;;;;5095857;28;20693;-84
2021/06/30 02:52:36;;;;;;;4.03;1.67;;;;;;;;;;5094378;28;20202;-83
2021/06/30 02:55:03;;;;;;;4.97;1.67;;;;;;;;;;5094230;28;20208;-82
2021/06/30 02:57:30;;;;;;;1.87;1.60;;;;;;;;;;5094183;28;20197;-83
2021/06/30 02:59:56;;;;;;;1.53;1.47;;;;;;;;;;5095338;28;20209;-83
2021/06/30 03:02:23;;;;;;;2.73;1.60;;;;;;;;;;5093543;28;20990;-83
2021/06/30 03:04:50;;;;;;;3.00;1.50;;;;;;;;;;5093898;28;20669;-82
2021/06/30 03:07:18;;;;;;;1.80;1.30;;;;;;;;;;5095531;28;20252;-82
2021/06/30 03:09:44;;;;;;;5.57;1.53;;;;;;;;;;5095254;28;20212;-83
2021/06/30 03:12:11;;;;;;;6.80;1.53;;;;;;;;;;5095534;28;20206;-83
2021/06/30 03:14:38;;;;;;;2.13;1.30;;;;;;;;;;5095438;28;20994;-83
2021/06/30 03:17:05;;;;;;;6.03;1.47;;;;;;;;;;5093954;28;20182;-83
2021/06/30 03:19:32;;;;;;;1.40;1.30;;;;;;;;;;5095039;28;20594;-83
2021/06/30 03:21:59;;;;;;;3.67;1.10;;;;;;;;;;5094860;28;20668;-83
2021/06/30 03:24:26;;;;;;;4.47;1.10;;;;;;;;;;5093878;28;20206;-83
2021/06/30 03:26:53;;;;;;;0.90;0.90;;;;;;;;;;5093802;28;20218;-83
2021/06/30 03:29:20;;;;;;;2.37;1.07;;;;;;;;;;5095100;28;20185;-83
2021/06/30 03:31:47;;;;;;;2.97;1.27;;;;;;;;;;5093742;28;20824;-83
2021/06/30 03:34:13;;;;;;;2.20;1.10;;;;;;;;;;5094423;28;20213;-83
2021/06/30 03:36:40;;;;;;;6.13;1.30;;;;;;;;;;5094193;28;20677;-83
2021/06/30 03:39:07;;;;;;;3.03;1.10;;;;;;;;;;5093043;28;20611;-82
2021/06/30 03:41:35;;;;;;;0.90;0.90;;;;;;;;;;5094772;28;20205;-82
2021/06/30 03:44:01;;;;;;;1.30;1.20;;;;;;;;;;5093380;28;20201;-83
2021/06/30 03:46:28;;;;;;;0.90;0.90;;;;;;;;;;5092678;28;20194;-84
2021/06/30 03:48:55;;;;;;;1.87;1.30;;;;;;;;;;5094750;28;20244;-83
2021/06/30 03:51:21;;;;;;;6.53;1.07;;;;;;;;;;5093085;28;20193;-82
2021/06/30 03:53:48;;;;;;;2.07;1.13;;;;;;;;;;5093176;28;20197;-82
2021/06/30 03:56:15;;;;;;;3.93;1.37;;;;;;;;;;5093252;28;20726;-83
2021/06/30 03:58:43;;;;;;;1.40;1.03;;;;;;;;;;5092771;28;20665;-82
2021/06/30 04:01:09;;;;;;;1.10;0.93;;;;;;;;;;5093021;28;20653;-83
2021/06/30 04:03:36;;;;;;;1.87;1.10;;;;;;;;;;5093927;28;20226;-83
2021/06/30 04:06:03;;;;;;;2.83;1.10;;;;;;;;;;5092870;28;20227;-83
2021/06/30 04:08:29;;;;;;;1.43;1.00;;;;;;;;;;5092922;28;20234;-83
2021/06/30 04:10:56;;;;;;;1.90;1.20;;;;;;;;;;5094379;28;20206;-82
2021/06/30 04:13:23;;;;;;;2.17;1.00;;;;;;;;;;5092966;28;20189;-82
2021/06/30 04:15:51;;;;;;;1.10;0.90;;;;;;;;;;5094234;28;20209;-83
2021/06/30 04:18:17;;;;;;;0.80;0.80;;;;;;;;;;5092677;28;20237;-83
2021/06/30 04:20:47;;;;;;;2.30;1.07;;;;;;;;;;5094135;28;20616;-82
2021/06/30 04:23:14;;;;;;;0.80;0.80;;;;;;;;;;5092144;28;20202;-82
2021/06/30 04:25:41;;;;;;;0.67;0.67;;;;;;;;;;5092625;28;20558;-82
2021/06/30 04:28:07;;;;;;;0.77;0.77;;;;;;;;;;5093410;28;20264;-82
2021/06/30 04:30:34;;;;;;;1.97;0.90;;;;;;;;;;5092429;28;20198;-82
2021/06/30 04:33:02;;;;;;;2.00;1.03;;;;;;;;;;5092650;28;20526;-82
2021/06/30 04:35:29;;;;;;;1.53;1.00;;;;;;;;;;5092154;28;20202;-84
2021/06/30 04:37:55;;;;;;;1.50;0.83;;;;;;;;;;5093587;28;20210;-81
2021/06/30 04:40:22;;;;;;;0.83;0.70;;;;;;;;;;5093799;28;20179;-83
2021/06/30 04:42:49;;;;;;;0.80;0.80;;;;;;;;;;5093674;28;20214;-82
2021/06/30 04:45:15;;;;;;;1.00;0.80;;;;;;;;;;5092287;28;20845;-82
2021/06/30 04:47:42;;;;;;;1.00;0.90;;;;;;;;;;5092400;28;20656;-82
2021/06/30 04:50:11;;;;;;;3.77;0.80;;;;;;;;;;5093781;28;20567;-82
2021/06/30 04:52:37;;;;;;;2.10;0.90;;;;;;;;;;5091933;28;20205;-83
2021/06/30 04:55:05;;;;;;;0.90;0.90;;;;;;;;;;5092327;28;20275;-81
2021/06/30 04:57:31;;;;;;;0.60;0.60;;;;;;;;;;5092243;28;20194;-83
2021/06/30 04:59:58;;;;;;;4.10;0.87;;;;;;;;;;5093539;28;20241;-82
2021/06/30 05:02:24;;;;;;;2.43;0.80;;;;;;;;;;5092974;28;20229;-81
2021/06/30 05:04:51;;;;;;;0.67;0.67;;;;;;;;;;5093623;28;20237;-83
2021/06/30 05:07:19;;;;;;;1.70;0.73;;;;;;;;;;5092187;28;20209;-85
2021/06/30 05:09:46;;;;;;;3.70;0.90;;;;;;;;;;5092171;28;20526;-83
2021/06/30 05:12:13;;;;;;;0.93;0.70;;;;;;;;;;5093379;28;20189;-83
2021/06/30 05:14:40;;;;;;;4.03;0.80;;;;;;;;;;5091939;28;20189;-83
2021/06/30 05:17:06;;;;;;;1.93;1.17;;;;;;;;;;5092087;28;20194;-81
2021/06/30 05:19:33;;;;;;;3.13;1.20;;;;;;;;;;5092141;28;20757;-83
2021/06/30 05:22:00;;;;;;;1.00;0.90;;;;;;;;;;5091817;28;20186;-83
2021/06/30 05:24:28;;;;;;;0.90;0.90;;;;;;;;;;5091766;28;20206;-82
2021/06/30 05:26:54;;;;;;;2.93;0.73;;;;;;;;;;5091660;28;20214;-82
2021/06/30 05:29:21;;;;;;;4.27;0.90;;;;;;;;;;5091870;28;20190;-83
2021/06/30 05:31:48;;;;;;;0.60;0.60;;;;;;;;;;5093152;28;20560;-82
2021/06/30 05:34:15;;;;;;;2.00;0.80;;;;;;;;;;5091756;28;20197;-83
2021/06/30 05:36:47;;;;;;;0.50;0.50;;;;;;;;;;5091456;28;20271;-83
2021/06/30 05:39:14;;;;;;;0.90;0.87;;;;;;;;;;5091847;28;20584;-81
2021/06/30 05:41:42;;;;;;;0.93;0.50;;;;;;;;;;5091807;28;20197;-85
2021/06/30 05:44:09;;;;;;;0.80;0.80;;;;;;;;;;5091551;28;20255;-82
2021/06/30 05:46:36;;;;;;;0.80;0.60;;;;;;;;;;5091722;28;20194;-82
2021/06/30 05:49:02;;;;;;;0.73;0.73;;;;;;;;;;5091625;28;20249;-83
2021/06/30 05:51:29;;;;;;;0.80;0.77;;;;;;;;;;5091532;28;20198;-83
2021/06/30 05:53:55;;;;;;;2.93;0.77;;;;;;;;;;5091592;28;20984;-83
2021/06/30 05:56:22;;;;;;;0.60;0.60;;;;;;;;;;5092925;28;20178;-85
2021/06/30 05:58:50;;;;;;;1.90;0.80;;;;;;;;;;5091916;28;20201;-84
2021/06/30 06:01:17;;;;;;;1.87;0.80;;;;;;;;;;5091606;28;20231;-84
2021/06/30 06:03:44;;;;;;;1.00;1.00;;;;;;;;;;5092504;28;20268;-86
2021/06/30 06:06:10;;;;;;;0.90;0.90;;;;;;;;;;5091543;28;20665;-81
2021/06/30 06:08:38;;;;;;;1.00;0.90;;;;;;;;;;5093071;28;20681;-86
2021/06/30 06:11:10;;;;;;;1.60;0.80;;;;;;;;;;5095610;28;20871;-85
2021/06/30 06:13:37;;;;;;;1.53;0.53;;;;;;;;;;5095451;28;20204;-86
2021/06/30 06:16:05;;;;;;;3.27;0.90;;;;;;;;;;5095992;28;20216;-86
2021/06/30 06:18:32;;;;;;;0.80;0.80;;;;;;;;;;5096655;28;20206;-84
2021/06/30 06:20:58;;;;;;;0.60;0.60;;;;;;;;;;5095427;28;20294;-83
2021/06/30 06:23:25;;;;;;;1.10;1.00;;;;;;;;;;5095192;28;20251;-82
2021/06/30 06:25:52;;;;;;;0.60;0.60;;;;;;;;;;5094959;28;20688;-84
2021/06/30 06:28:18;;;;;;;2.17;0.70;;;;;;;;;;5094990;28;20689;-85
2021/06/30 06:30:48;;;;;;;0.60;0.60;;;;;;;;;;5095034;28;20556;-85
2021/06/30 06:33:16;;;;;;;2.73;0.70;;;;;;;;;;5096169;28;20237;-85
2021/06/30 06:35:43;;;;;;;5.50;1.03;;;;;;;;;;5094989;28;20244;-81
2021/06/30 06:38:10;;;;;;;0.70;0.70;;;;;;;;;;5094588;28;20246;-82
2021/06/30 06:40:38;;;;;;;2.00;0.80;;;;;;;;;;5094778;28;20220;-84
2021/06/30 06:43:07;;;;;;;1.33;0.80;;;;;;;;;;5094830;28;20198;-84
2021/06/30 06:45:33;;;;;;;1.57;0.80;;;;;;;;;;5094550;28;20723;-84
2021/06/30 06:48:00;;;;;;;0.63;0.63;;;;;;;;;;5094482;28;20249;-84
2021/06/30 06:50:28;;;;;;;1.47;1.10;;;;;;;;;;5094707;28;20189;-83
2021/06/30 06:52:55;;;;;;;1.20;0.90;;;;;;;;;;5094649;28;20202;-83
2021/06/30 06:55:23;;;;;;;2.53;0.67;;;;;;;;;;5094579;28;20646;-83
2021/06/30 06:57:49;;;;;;;0.67;0.50;;;;;;;;;;5095790;28;20206;-84
2021/06/30 07:00:17;;;;;;;0.80;0.80;;;;;;;;;;5094547;28;20198;-83
2021/06/30 07:02:44;;;;;;;0.93;0.80;;;;;;;;;;5094395;28;20303;-83
2021/06/30 07:05:10;;;;;;;1.03;0.70;;;;;;;;;;5095617;28;20217;-84
2021/06/30 07:07:41;;;;;;;0.60;0.60;;;;;;;;;;5094306;28;20197;-83
2021/06/30 07:10:08;;;;;;;0.70;0.70;;;;;;;;;;5094188;28;20202;-83
2021/06/30 07:12:34;;;;;;;4.20;0.90;;;;;;;;;;5095240;28;20237;-86
2021/06/30 07:15:02;;;;;;;2.60;1.07;;;;;;;;;;5095674;28;21130;-85
2021/06/30 07:17:29;;;;;;;0.83;0.83;;;;;;;;;;5095408;28;20182;-85
2021/06/30 07:19:56;;;;;;;1.00;1.00;;;;;;;;;;5093667;28;20198;-85
2021/06/30 07:22:22;;;;;;;2.50;1.20;;;;;;;;;;5095373;28;20209;-84
2021/06/30 07:24:50;;;;;;;0.70;0.70;;;;;;;;;;5095565;28;20582;-84
2021/06/30 07:27:17;;;;;;;2.30;1.00;;;;;;;;;;5093328;28;20221;-83
2021/06/30 07:29:44;;;;;;;1.40;0.90;;;;;;;;;;5093505;28;20762;-83
2021/06/30 07:32:10;;;;;;;1.93;1.30;;;;;;;;;;5093723;28;20221;-83
2021/06/30 07:34:37;;;;;;;0.90;0.90;;;;;;;;;;5093578;28;20194;-82
2021/06/30 07:37:04;;;;;;;2.33;1.10;;;;;;;;;;5093582;28;20198;-83
2021/06/30 07:39:31;;;;;;;3.80;0.90;;;;;;;;;;5093639;28;20251;-84
2021/06/30 07:42:00;;;;;;;3.80;0.80;;;;;;;;;;5093644;28;20194;-83
2021/06/30 07:44:27;;;;;;;2.70;0.73;;;;;;;;;;5094935;28;20235;-83
2021/06/30 07:46:54;;;;;;;0.70;0.70;;;;;;;;;;5094695;28;20174;-83
2021/06/30 07:49:20;;;;;;;0.87;0.80;;;;;;;;;;5093362;28;20565;-83
2021/06/30 07:51:47;;;;;;;1.40;0.80;;;;;;;;;;5093497;28;20561;-83
2021/06/30 07:54:14;;;;;;;0.77;0.77;;;;;;;;;;5093164;28;20209;-84
2021/06/30 07:56:41;;;;;;;0.70;0.70;;;;;;;;;;5094648;28;20210;-83
2021/06/30 07:59:10;;;;;;;1.00;0.73;;;;;;;;;;5093191;28;20205;-83
2021/06/30 08:01:37;;;;;;;0.97;0.80;;;;;;;;;;5093264;28;20201;-83
2021/06/30 08:04:05;;;;;;;1.37;0.70;;;;;;;;;;5092721;28;20225;-83
2021/06/30 08:06:32;;;;;;;1.00;0.87;;;;;;;;;;5094360;28;20185;-84
2021/06/30 08:08:59;;;;;;;2.93;0.87;;;;;;;;;;5093074;28;20296;-85
2021/06/30 08:11:25;;;;;;;1.50;0.73;;;;;;;;;;5093288;28;20198;-84
2021/06/30 08:13:52;;;;;;;0.90;0.90;;;;;;;;;;5093089;28;20202;-85
2021/06/30 08:16:21;;;;;;;1.67;1.10;;;;;;;;;;5092870;28;20210;-85
2021/06/30 08:18:48;;;;;;;3.27;1.10;;;;;;;;;;5093083;28;20206;-85
2021/06/30 08:21:15;;;;;;;1.30;0.90;;;;;;;;;;5092855;28;20213;-85
2021/06/30 08:23:41;;;;;;;3.50;1.00;;;;;;;;;;5092838;28;20223;-85
2021/06/30 08:26:08;;;;;;;1.30;1.10;;;;;;;;;;5092666;28;20249;-85
2021/06/30 08:28:35;;;;;;;1.27;1.10;;;;;;;;;;5092860;28;20245;-85
2021/06/30 08:31:02;;;;;;;1.90;0.90;;;;;;;;;;5092819;28;20215;-85
2021/06/30 08:33:30;;;;;;;1.10;1.10;;;;;;;;;;5093376;28;20681;-85
2021/06/30 08:35:57;;;;;;;1.00;1.00;;;;;;;;;;5092797;28;20202;-85
2021/06/30 08:38:23;;;;;;;1.17;1.10;;;;;;;;;;5093924;28;20209;-85
2021/06/30 08:40:53;;;;;;;1.20;1.20;;;;;;;;;;5093915;28;20225;-84
2021/06/30 08:43:19;;;;;;;1.20;1.20;;;;;;;;;;5092727;28;20258;-85
2021/06/30 08:45:46;;;;;;;1.20;1.20;;;;;;;;;;5092816;28;20201;-85
2021/06/30 08:48:13;;;;;;;1.43;1.40;;;;;;;;;;5092093;28;20252;-85
2021/06/30 08:50:41;;;;;;;1.90;1.43;;;;;;;;;;5092855;28;20241;-84
2021/06/30 08:53:09;;;;;;;1.30;1.00;;;;;;;;;;5092567;28;20246;-85
2021/06/30 08:55:36;;;;;;;1.43;1.10;;;;;;;;;;5093928;28;20221;-85
2021/06/30 08:58:03;;;;;;;0.83;0.83;;;;;;;;;;5093674;28;20174;-85
2021/06/30 09:00:30;;;;;;;1.10;1.00;;;;;;;;;;5092319;28;20251;-85
2021/06/30 09:02:58;;;;;;;1.13;0.83;;;;;;;;;;5091913;28;20237;-85
2021/06/30 09:05:38;;;;;;;1.33;0.80;;;;;;;;;;5092739;28;20212;-85
2021/06/30 09:08:06;;;;;;;0.60;0.60;;;;;;;;;;5092648;28;20201;-85
2021/06/30 09:10:35;;;;;;;0.77;0.77;;;;;;;;;;5092402;28;20244;-84
2021/06/30 09:13:03;;;;;;;0.40;0.40;;;;;;;;;;5093755;28;20216;-84
2021/06/30 09:15:32;;;;;;;0.50;0.50;;;;;;;;;;5092275;28;20189;-85
2021/06/30 09:18:18;;;;;;;1.60;0.50;;;;;;;;;;5092008;28;20190;-84
2021/06/30 09:20:45;;;;;;;0.97;0.50;;;;;;;;;;5091520;28;20602;-85
2021/06/30 09:23:13;;;;;;;0.30;0.30;;;;;;;;;;5092035;28;20190;-84
2021/06/30 09:25:41;;;;;;;0.33;0.33;;;;;;;;;;5093009;28;20218;-84
2021/06/30 09:28:18;;;;;;;0.53;0.53;;;;;;;;;;5093079;28;20209;-81
2021/06/30 09:31:01;;;;;;;0.50;0.50;;;;;;;;;;5091901;28;20291;-85
2021/06/30 09:33:43;;;;;;;6.53;0.70;;;;;;;;;;5091357;28;20625;-84
2021/06/30 09:36:09;;;;;;;2.53;0.50;;;;;;;;;;5091875;28;20211;-85
2021/06/30 09:38:37;;;;;;;0.60;0.60;;;;;;;;;;5091393;28;20202;-84
2021/06/30 09:41:04;;;;;;;0.60;0.60;;;;;;;;;;5091351;28;20209;-85
2021/06/30 09:43:31;;;;;;;0.47;0.47;;;;;;;;;;5092701;28;20241;-82
2021/06/30 09:45:59;;;;;;;0.57;0.57;;;;;;;;;;5095570;28;20252;-83
2021/06/30 09:48:27;;;;;;;1.70;0.60;;;;;;;;;;5096058;28;20291;-84
2021/06/30 09:50:54;;;;;;;0.50;0.50;;;;;;;;;;5095628;28;20213;-82
2021/06/30 09:53:30;;;;;;;0.70;0.70;;;;;;;;;;5095842;28;20568;-82
2021/06/30 09:56:07;;;;;;;0.67;0.67;;;;;;;;;;5096999;28;20692;-84
2021/06/30 09:58:34;;;;;;;0.87;0.60;;;;;;;;;;5095018;28;20198;-84
2021/06/30 10:01:13;;;;;;;0.70;0.70;;;;;;;;;;5095904;28;20589;-82
2021/06/30 10:03:40;;;;;;;0.50;0.50;;;;;;;;;;5095235;28;20229;-84
2021/06/30 10:06:22;;;;;;;1.20;0.77;;;;;;;;;;5095059;28;20889;-84
2021/06/30 10:08:48;;;;;;;0.90;0.50;;;;;;;;;;5095148;28;20198;-82
2021/06/30 10:11:16;;;;;;;0.60;0.60;;;;;;;;;;5096567;28;20677;-83
2021/06/30 10:13:43;;;;;;;0.70;0.70;;;;;;;;;;5095035;28;20553;-82
2021/06/30 10:16:10;;;;;;;0.87;0.70;;;;;;;;;;5096628;28;20221;-82
2021/06/30 10:18:38;;;;;;;0.60;0.60;;;;;;;;;;5095429;28;20247;-85
2021/06/30 10:21:05;;;;;;;0.80;0.80;;;;;;;;;;5095303;28;20202;-82
2021/06/30 10:23:31;;;;;;;0.70;0.70;;;;;;;;;;5094978;28;20267;-82
2021/06/30 10:25:58;;;;;;;0.50;0.50;;;;;;;;;;5096452;28;20248;-85
2021/06/30 10:28:28;;;;;;;0.77;0.73;;;;;;;;;;5095583;28;20223;-87
2021/06/30 10:30:55;;;;;;;1.73;0.53;;;;;;;;;;5094892;28;20299;-85
2021/06/30 10:33:29;;;;;;;0.47;0.47;;;;;;;;;;5094981;28;20256;-86
2021/06/30 10:35:55;;;;;;;0.50;0.50;;;;;;;;;;5095246;28;20194;-85
2021/06/30 10:38:22;;;;;;;1.03;0.57;;;;;;;;;;5095064;28;20216;-85
2021/06/30 10:40:49;;;;;;;1.50;0.70;;;;;;;;;;5096072;28;20209;-84
2021/06/30 10:43:15;;;;;;;0.67;0.67;;;;;;;;;;5094533;28;20228;-84
2021/06/30 10:45:44;;;;;;;1.80;0.67;;;;;;;;;;5094163;28;20240;-83
2021/06/30 10:48:13;;;;;;;0.60;0.60;;;;;;;;;;5095790;28;20210;-83
2021/06/30 10:50:42;;;;;;;1.03;0.70;;;;;;;;;;5094660;28;20896;-83
2021/06/30 10:53:29;;;;;;;1.13;0.73;;;;;;;;;;5094159;28;20554;-83
2021/06/30 10:55:57;;;;;;;1.60;0.70;;;;;;;;;;5095546;28;20206;-85
2021/06/30 10:58:25;;;;;;;0.60;0.60;;;;;;;;;;5095291;28;20248;-83
2021/06/30 11:01:04;;;;;;;0.80;0.80;;;;;;;;;;5094064;28;20219;-83
2021/06/30 11:03:32;;;;;;;1.57;0.70;;;;;;;;;;5095065;28;20237;-81
2021/06/30 11:06:16;;;;;;;4.03;0.90;;;;;;;;;;5094304;28;20255;-82
2021/06/30 11:08:45;;;;;;;0.60;0.60;;;;;;;;;;5093865;28;20202;-77
2021/06/30 11:11:12;;;;;;;0.60;0.60;;;;;;;;;;5094000;28;20245;-80
2021/06/30 11:13:55;;;;;;;0.98;0.60;;;;;;;;;;5093605;28;20202;-83
2021/06/30 11:16:41;;;;;;;4.67;0.67;;;;;;;;;;5093689;28;20206;-83
2021/06/30 11:19:29;;;;;;;1.17;0.70;;;;;;;;;;5095131;28;20182;-83
2021/06/30 11:21:57;;;;;;;0.60;0.60;;;;;;;;;;5094566;28;20214;-82
2021/06/30 11:24:43;;;;;;;1.90;0.67;;;;;;;;;;5093558;28;20202;-85
2021/06/30 11:27:25;;;;;;;4.13;0.70;;;;;;;;;;5095088;28;20214;-82
2021/06/30 11:29:54;;;;;;;0.60;0.60;;;;;;;;;;5092897;28;20274;-82
2021/06/30 11:32:36;;;;;;;0.75;0.63;;;;;;;;;;5094546;28;20673;-82
2021/06/30 11:35:05;;;;;;;0.80;0.80;;;;;;;;;;5094240;28;20209;-82
2021/06/30 11:37:32;;;;;;;1.77;0.77;;;;;;;;;;5093437;28;20249;-82
2021/06/30 11:40:05;;;;;;;0.93;0.60;;;;;;;;;;5092941;28;20202;-82
2021/06/30 11:42:31;;;;;;;0.60;0.60;;;;;;;;;;5093022;28;20209;-82
2021/06/30 11:44:58;;;;;;;0.80;0.70;;;;;;;;;;5093347;28;20186;-82
2021/06/30 11:47:25;;;;;;;1.03;0.87;;;;;;;;;;5093428;28;20201;-83
2021/06/30 11:50:00;;;;;;;0.73;0.73;;;;;;;;;;5092989;28;20205;-83
2021/06/30 11:52:28;;;;;;;0.60;0.60;;;;;;;;;;5093339;28;20200;-84
2021/06/30 11:54:55;;;;;;;0.83;0.80;;;;;;;;;;5094377;28;20237;-84
2021/06/30 11:57:22;;;;;;;0.70;0.70;;;;;;;;;;5093141;28;20251;-84
2021/06/30 11:59:48;;;;;;;0.90;0.90;;;;;;;;;;5093080;28;20190;-84
2021/06/30 12:02:16;;;;;;;1.57;0.60;;;;;;;;;;5094455;28;20760;-84
2021/06/30 12:04:42;;;;;;;2.33;0.90;;;;;;;;;;5092532;28;20198;-84
2021/06/30 12:07:09;;;;;;;0.63;0.63;;;;;;;;;;5092920;28;20220;-84
2021/06/30 12:09:39;;;;;;;0.80;0.80;;;;;;;;;;5092714;28;20247;-84
2021/06/30 12:12:07;;;;;;;1.33;0.70;;;;;;;;;;5093236;28;20273;-83
2021/06/30 12:14:36;;;;;;;1.10;0.93;;;;;;;;;;5092824;28;20202;-84
2021/06/30 12:17:04;;;;;;;2.00;0.80;;;;;;;;;;5092978;28;20193;-82
2021/06/30 12:19:32;;;;;;;0.83;0.60;;;;;;;;;;5092271;28;20755;-81
2021/06/30 12:21:59;;;;;;;0.97;0.90;;;;;;;;;;5092427;28;20198;-81
2021/06/30 12:24:26;;;;;;;1.08;1.08;;;;;;;;;;5093616;28;20203;-80
2021/06/30 12:27:01;;;;;;;1.25;0.85;;;;;;;;;;5091972;28;20283;-83
2021/06/30 12:29:28;;;;;;;0.70;0.70;;;;;;;;;;5093590;28;20213;-81
2021/06/30 12:31:55;;;;;;;0.80;0.80;;;;;;;;;;5093567;28;20249;-80
2021/06/30 12:34:23;;;;;;;0.88;0.80;;;;;;;;;;5091602;28;20723;-83
2021/06/30 12:36:49;;;;;;;1.42;0.85;;;;;;;;;;5092490;28;20707;-81
2021/06/30 12:39:17;;;;;;;0.43;0.43;;;;;;;;;;5093546;28;20252;-81
2021/06/30 12:41:49;;;;;;;2.55;0.60;;;;;;;;;;5092060;28;20202;-82
2021/06/30 12:44:17;;;;;;;2.00;0.70;;;;;;;;;;5091777;28;20209;-83
2021/06/30 12:46:44;;;;;;;2.20;0.80;;;;;;;;;;5092199;28;20201;-82
2021/06/30 12:49:15;;;;;;;0.70;0.70;;;;;;;;;;5091923;28;20205;-82
2021/06/30 12:51:43;;;;;;;0.60;0.60;;;;;;;;;;5091989;28;20226;-82
2021/06/30 12:54:10;;;;;;;1.17;0.90;;;;;;;;;;5092034;28;20213;-84
2021/06/30 12:56:42;;;;;;;0.70;0.70;;;;;;;;;;5092226;28;20205;-83
2021/06/30 12:59:12;;;;;;;0.70;0.70;;;;;;;;;;5091830;28;20205;-82
2021/06/30 13:01:40;;;;;;;1.23;1.10;;;;;;;;;;5093527;28;20198;-83
2021/06/30 13:04:08;;;;;;;1.13;1.00;;;;;;;;;;5092109;28;20225;-84
2021/06/30 13:06:35;;;;;;;1.60;1.20;;;;;;;;;;5092901;28;20237;-82
2021/06/30 13:09:03;;;;;;;1.08;0.90;;;;;;;;;;5091606;28;20557;-81
2021/06/30 13:11:30;;;;;;;1.30;0.82;;;;;;;;;;5093201;28;20256;-81
2021/06/30 13:13:58;;;;;;;0.85;0.85;;;;;;;;;;5091312;28;20666;-82
2021/06/30 13:16:25;;;;;;;2.08;0.82;;;;;;;;;;5091989;28;20217;-83
2021/06/30 13:18:55;;;;;;;0.80;0.80;;;;;;;;;;5092813;28;20198;-82
2021/06/30 13:21:22;;;;;;;0.90;0.90;;;;;;;;;;5097510;28;20590;-83
2021/06/30 13:23:53;;;;;;;0.93;0.93;;;;;;;;;;5097466;28;20244;-83
2021/06/30 13:29:39;;;;;;;0.80;0.80;;;;;;;;;;5045879;28;20231;-83
2021/06/30 13:35:18;;;;;;;1.00;1.00;;;;;;;;;;5095900;28;20243;-84
2021/06/30 13:37:45;;;;;;;1.02;0.93;;;;;;;;;;5096012;28;20556;-84
2021/06/30 13:40:12;;;;;;;3.30;1.10;;;;;;;;;;5096072;28;20210;-84
2021/06/30 13:42:39;;;;;;;0.70;0.70;;;;;;;;;;5097251;28;20174;-84
2021/06/30 13:45:06;;;;;;;0.70;0.70;;;;;;;;;;5095839;28;20202;-84
2021/06/30 13:47:33;;;;;;;0.75;0.75;;;;;;;;;;5097179;28;20208;-85
2021/06/30 13:50:00;;;;;;;0.82;0.60;;;;;;;;;;5097388;28;20178;-85
2021/06/30 13:52:27;;;;;;;0.63;0.63;;;;;;;;;;5095683;28;20245;-85
2021/06/30 13:54:54;;;;;;;0.68;0.60;;;;;;;;;;5096971;28;20757;-84
2021/06/30 13:57:21;;;;;;;0.95;0.60;;;;;;;;;;5095042;28;20197;-85
2021/06/30 13:59:48;;;;;;;0.57;0.57;;;;;;;;;;5097081;28;20220;-82
2021/06/30 14:02:15;;;;;;;0.95;0.60;;;;;;;;;;5094934;28;20236;-84
2021/06/30 14:04:41;;;;;;;0.75;0.52;;;;;;;;;;5095676;28;20189;-83
2021/06/30 14:07:08;;;;;;;0.50;0.50;;;;;;;;;;5095344;28;20900;-85
2021/06/30 14:09:36;;;;;;;0.40;0.40;;;;;;;;;;5095517;28;20206;-84
2021/06/30 14:12:03;;;;;;;2.08;0.70;;;;;;;;;;5094950;28;20249;-85
2021/06/30 14:14:30;;;;;;;0.60;0.60;;;;;;;;;;5094838;28;20535;-82
2021/06/30 14:16:56;;;;;;;0.70;0.70;;;;;;;;;;5095106;28;20197;-84
2021/06/30 14:19:23;;;;;;;0.55;0.55;;;;;;;;;;5094982;28;20658;-81
2021/06/30 14:21:50;;;;;;;0.77;0.77;;;;;;;;;;5094866;28;20201;-82
2021/06/30 14:24:17;;;;;;;1.85;0.85;;;;;;;;;;5094536;28;20240;-82
2021/06/30 14:26:45;;;;;;;1.35;0.50;;;;;;;;;;5096124;28;20221;-81
2021/06/30 14:29:12;;;;;;;0.50;0.50;;;;;;;;;;5094724;28;20766;-82
2021/06/30 14:31:39;;;;;;;0.50;0.50;;;;;;;;;;5094007;28;20580;-81
2021/06/30 14:34:05;;;;;;;0.82;0.82;;;;;;;;;;5094757;28;20186;-82
2021/06/30 14:36:32;;;;;;;1.65;0.60;;;;;;;;;;5094669;28;20206;-81
2021/06/30 14:38:59;;;;;;;0.40;0.40;;;;;;;;;;5096035;28;20209;-82
2021/06/30 14:41:26;;;;;;;0.85;0.45;;;;;;;;;;5094237;28;20665;-83
2021/06/30 14:43:54;;;;;;;0.50;0.50;;;;;;;;;;5094751;28;20190;-81
2021/06/30 14:46:21;;;;;;;0.50;0.50;;;;;;;;;;5094655;28;20250;-85
2021/06/30 14:48:47;;;;;;;0.45;0.43;;;;;;;;;;5094738;28;20198;-85
2021/06/30 14:51:14;;;;;;;0.40;0.40;;;;;;;;;;5094187;28;20255;-85
2021/06/30 14:53:41;;;;;;;0.60;0.60;;;;;;;;;;5094259;28;20206;-83